sensor_id;sensor_type;location;lat;lon;timestamp;P1;durP1;ratioP1;P2;durP2;ratioP2
66707;SDS011;53622;0.000;0.000;2023-08-21T00:01:45;8.27;;;4.28;;
66707;SDS011;53622;0.000;0.000;2023-08-21T00:04:15;6.03;;;3.67;;
66707;SDS011;53622;0.000;0.000;2023-08-21T00:06:45;6.00;;;3.95;;
66707;SDS011;53622;0.000;0.000;2023-08-21T00:09:14;9.15;;;4.18;;
66707;SDS011;53622;0.000;0.000;2023-08-21T00:11:44;7.00;;;4.40;;
66707;SDS011;53622;0.000;0.000;2023-08-21T00:14:13;7.55;;;4.00;;
66707;SDS011;53622;0.000;0.000;2023-08-21T00:16:42;7.80;;;3.80;;
66707;SDS011;53622;0.000;0.000;2023-08-21T00:19:11;6.80;;;3.83;;
66707;SDS011;53622;0.000;0.000;2023-08-21T00:21:41;6.68;;;3.90;;
66707;SDS011;53622;0.000;0.000;2023-08-21T00:24:12;5.57;;;4.18;;
66707;SDS011;53622;0.000;0.000;2023-08-21T00:26:41;8.00;;;4.38;;
66707;SDS011;53622;0.000;0.000;2023-08-21T00:29:10;4.57;;;4.10;;
66707;SDS011;53622;0.000;0.000;2023-08-21T00:31:39;6.05;;;3.90;;
66707;SDS011;53622;0.000;0.000;2023-08-21T00:34:09;6.00;;;4.13;;
66707;SDS011;53622;0.000;0.000;2023-08-21T00:36:38;8.13;;;3.97;;
66707;SDS011;53622;0.000;0.000;2023-08-21T00:39:07;6.40;;;4.57;;
66707;SDS011;53622;0.000;0.000;2023-08-21T00:41:38;6.43;;;4.22;;
66707;SDS011;53622;0.000;0.000;2023-08-21T00:44:07;6.20;;;3.95;;
66707;SDS011;53622;0.000;0.000;2023-08-21T00:46:37;7.57;;;4.10;;
66707;SDS011;53622;0.000;0.000;2023-08-21T00:49:06;8.30;;;3.90;;
66707;SDS011;53622;0.000;0.000;2023-08-21T00:51:35;9.27;;;4.10;;
66707;SDS011;53622;0.000;0.000;2023-08-21T00:54:05;9.55;;;4.63;;
66707;SDS011;53622;0.000;0.000;2023-08-21T00:56:34;7.93;;;3.90;;
66707;SDS011;53622;0.000;0.000;2023-08-21T00:59:05;8.18;;;4.00;;
66707;SDS011;53622;0.000;0.000;2023-08-21T01:01:35;8.70;;;4.22;;
66707;SDS011;53622;0.000;0.000;2023-08-21T01:04:06;6.15;;;4.20;;
66707;SDS011;53622;0.000;0.000;2023-08-21T01:06:36;7.63;;;4.40;;
66707;SDS011;53622;0.000;0.000;2023-08-21T01:09:08;8.25;;;4.18;;
66707;SDS011;53622;0.000;0.000;2023-08-21T01:11:43;10.13;;;4.30;;
66707;SDS011;53622;0.000;0.000;2023-08-21T01:14:21;8.40;;;4.25;;
66707;SDS011;53622;0.000;0.000;2023-08-21T01:16:59;4.70;;;4.03;;
66707;SDS011;53622;0.000;0.000;2023-08-21T01:19:35;5.88;;;4.20;;
66707;SDS011;53622;0.000;0.000;2023-08-21T01:22:06;4.75;;;4.05;;
66707;SDS011;53622;0.000;0.000;2023-08-21T01:24:37;7.57;;;4.00;;
66707;SDS011;53622;0.000;0.000;2023-08-21T01:27:06;5.53;;;3.95;;
66707;SDS011;53622;0.000;0.000;2023-08-21T01:29:35;5.68;;;3.95;;
66707;SDS011;53622;0.000;0.000;2023-08-21T01:32:06;7.30;;;4.20;;
66707;SDS011;53622;0.000;0.000;2023-08-21T01:34:39;6.35;;;4.40;;
66707;SDS011;53622;0.000;0.000;2023-08-21T01:37:09;6.50;;;4.03;;
66707;SDS011;53622;0.000;0.000;2023-08-21T01:39:41;7.50;;;4.10;;
66707;SDS011;53622;0.000;0.000;2023-08-21T01:42:10;6.20;;;4.30;;
66707;SDS011;53622;0.000;0.000;2023-08-21T01:44:40;6.88;;;4.28;;
66707;SDS011;53622;0.000;0.000;2023-08-21T01:47:09;6.15;;;4.65;;
66707;SDS011;53622;0.000;0.000;2023-08-21T01:49:38;9.88;;;4.80;;
66707;SDS011;53622;0.000;0.000;2023-08-21T01:52:07;5.53;;;4.38;;
66707;SDS011;53622;0.000;0.000;2023-08-21T01:54:37;6.38;;;4.30;;
66707;SDS011;53622;0.000;0.000;2023-08-21T01:57:07;5.97;;;3.85;;
66707;SDS011;53622;0.000;0.000;2023-08-21T01:59:37;6.43;;;4.47;;
66707;SDS011;53622;0.000;0.000;2023-08-21T02:02:06;7.57;;;4.53;;
66707;SDS011;53622;0.000;0.000;2023-08-21T02:04:35;8.65;;;4.38;;
66707;SDS011;53622;0.000;0.000;2023-08-21T02:07:05;7.47;;;4.15;;
66707;SDS011;53622;0.000;0.000;2023-08-21T02:09:34;6.30;;;4.60;;
66707;SDS011;53622;0.000;0.000;2023-08-21T02:12:04;7.88;;;4.57;;
66707;SDS011;53622;0.000;0.000;2023-08-21T02:14:35;7.47;;;4.47;;
66707;SDS011;53622;0.000;0.000;2023-08-21T02:17:04;6.78;;;4.70;;
66707;SDS011;53622;0.000;0.000;2023-08-21T02:19:33;8.45;;;4.25;;
66707;SDS011;53622;0.000;0.000;2023-08-21T02:22:02;8.55;;;4.88;;
66707;SDS011;53622;0.000;0.000;2023-08-21T02:24:32;6.00;;;4.32;;
66707;SDS011;53622;0.000;0.000;2023-08-21T02:27:01;7.95;;;5.28;;
66707;SDS011;53622;0.000;0.000;2023-08-21T02:29:30;6.43;;;4.65;;
66707;SDS011;53622;0.000;0.000;2023-08-21T02:32:04;7.03;;;4.68;;
66707;SDS011;53622;0.000;0.000;2023-08-21T02:34:34;10.43;;;4.93;;
66707;SDS011;53622;0.000;0.000;2023-08-21T02:37:03;8.30;;;4.63;;
66707;SDS011;53622;0.000;0.000;2023-08-21T02:39:32;6.28;;;4.70;;
66707;SDS011;53622;0.000;0.000;2023-08-21T02:42:02;9.35;;;4.82;;
66707;SDS011;53622;0.000;0.000;2023-08-21T02:44:31;7.38;;;4.78;;
66707;SDS011;53622;0.000;0.000;2023-08-21T02:47:03;8.23;;;4.82;;
66707;SDS011;53622;0.000;0.000;2023-08-21T02:49:33;5.95;;;5.13;;
66707;SDS011;53622;0.000;0.000;2023-08-21T02:52:02;8.63;;;4.90;;
66707;SDS011;53622;0.000;0.000;2023-08-21T02:54:32;8.35;;;5.30;;
66707;SDS011;53622;0.000;0.000;2023-08-21T02:57:01;6.47;;;4.90;;
66707;SDS011;53622;0.000;0.000;2023-08-21T02:59:31;5.93;;;4.50;;
66707;SDS011;53622;0.000;0.000;2023-08-21T03:02:00;7.30;;;4.88;;
66707;SDS011;53622;0.000;0.000;2023-08-21T03:04:31;7.10;;;4.72;;
66707;SDS011;53622;0.000;0.000;2023-08-21T03:07:00;10.10;;;4.93;;
66707;SDS011;53622;0.000;0.000;2023-08-21T03:09:30;5.88;;;4.30;;
66707;SDS011;53622;0.000;0.000;2023-08-21T03:12:00;9.45;;;4.43;;
66707;SDS011;53622;0.000;0.000;2023-08-21T03:14:29;7.90;;;4.60;;
66707;SDS011;53622;0.000;0.000;2023-08-21T03:16:58;9.55;;;4.85;;
66707;SDS011;53622;0.000;0.000;2023-08-21T03:19:29;8.55;;;5.10;;
66707;SDS011;53622;0.000;0.000;2023-08-21T03:21:59;7.63;;;4.90;;
66707;SDS011;53622;0.000;0.000;2023-08-21T03:24:30;7.13;;;4.55;;
66707;SDS011;53622;0.000;0.000;2023-08-21T03:26:59;6.43;;;4.40;;
66707;SDS011;53622;0.000;0.000;2023-08-21T03:29:29;7.20;;;4.88;;
66707;SDS011;53622;0.000;0.000;2023-08-21T03:31:58;7.93;;;4.95;;
66707;SDS011;53622;0.000;0.000;2023-08-21T03:34:27;7.97;;;5.15;;
66707;SDS011;53622;0.000;0.000;2023-08-21T03:37:02;6.78;;;4.97;;
66707;SDS011;53622;0.000;0.000;2023-08-21T03:39:32;8.00;;;4.47;;
66707;SDS011;53622;0.000;0.000;2023-08-21T03:42:02;8.70;;;5.20;;
66707;SDS011;53622;0.000;0.000;2023-08-21T03:44:32;7.05;;;4.78;;
66707;SDS011;53622;0.000;0.000;2023-08-21T03:47:01;10.02;;;4.97;;
66707;SDS011;53622;0.000;0.000;2023-08-21T03:49:33;11.23;;;5.10;;
66707;SDS011;53622;0.000;0.000;2023-08-21T03:52:04;6.30;;;4.97;;
66707;SDS011;53622;0.000;0.000;2023-08-21T03:54:35;8.02;;;4.60;;
66707;SDS011;53622;0.000;0.000;2023-08-21T03:57:04;6.60;;;4.70;;
66707;SDS011;53622;0.000;0.000;2023-08-21T03:59:34;6.40;;;4.63;;
66707;SDS011;53622;0.000;0.000;2023-08-21T04:02:05;7.28;;;4.78;;
66707;SDS011;53622;0.000;0.000;2023-08-21T04:04:35;9.27;;;4.95;;
66707;SDS011;53622;0.000;0.000;2023-08-21T04:07:06;10.48;;;5.18;;
66707;SDS011;53622;0.000;0.000;2023-08-21T04:09:38;7.15;;;5.03;;
66707;SDS011;53622;0.000;0.000;2023-08-21T04:12:08;7.63;;;4.80;;
66707;SDS011;53622;0.000;0.000;2023-08-21T04:14:40;8.70;;;4.65;;
66707;SDS011;53622;0.000;0.000;2023-08-21T04:17:09;12.15;;;4.75;;
66707;SDS011;53622;0.000;0.000;2023-08-21T04:19:38;7.75;;;5.05;;
66707;SDS011;53622;0.000;0.000;2023-08-21T04:22:09;11.35;;;4.82;;
66707;SDS011;53622;0.000;0.000;2023-08-21T04:24:39;5.43;;;4.60;;
66707;SDS011;53622;0.000;0.000;2023-08-21T04:27:08;10.43;;;5.05;;
66707;SDS011;53622;0.000;0.000;2023-08-21T04:29:38;7.18;;;5.05;;
66707;SDS011;53622;0.000;0.000;2023-08-21T04:32:07;8.70;;;4.47;;
66707;SDS011;53622;0.000;0.000;2023-08-21T04:34:36;9.23;;;4.65;;
66707;SDS011;53622;0.000;0.000;2023-08-21T04:37:06;8.38;;;4.85;;
66707;SDS011;53622;0.000;0.000;2023-08-21T04:39:37;8.48;;;4.70;;
66707;SDS011;53622;0.000;0.000;2023-08-21T04:42:07;6.65;;;4.50;;
66707;SDS011;53622;0.000;0.000;2023-08-21T04:44:37;9.70;;;4.47;;
66707;SDS011;53622;0.000;0.000;2023-08-21T04:49:54;7.22;;;4.78;;
66707;SDS011;53622;0.000;0.000;2023-08-21T04:52:24;7.97;;;4.43;;
66707;SDS011;53622;0.000;0.000;2023-08-21T04:54:55;5.82;;;5.28;;
66707;SDS011;53622;0.000;0.000;2023-08-21T04:57:26;9.18;;;5.00;;
66707;SDS011;53622;0.000;0.000;2023-08-21T04:59:56;7.63;;;4.95;;
66707;SDS011;53622;0.000;0.000;2023-08-21T05:02:33;9.63;;;5.13;;
66707;SDS011;53622;0.000;0.000;2023-08-21T05:05:03;8.25;;;4.68;;
66707;SDS011;53622;0.000;0.000;2023-08-21T05:07:33;5.88;;;4.40;;
66707;SDS011;53622;0.000;0.000;2023-08-21T05:10:05;10.40;;;4.90;;
66707;SDS011;53622;0.000;0.000;2023-08-21T05:12:36;8.00;;;4.90;;
66707;SDS011;53622;0.000;0.000;2023-08-21T05:15:07;9.48;;;5.40;;
66707;SDS011;53622;0.000;0.000;2023-08-21T05:17:36;8.48;;;5.03;;
66707;SDS011;53622;0.000;0.000;2023-08-21T05:20:06;7.25;;;5.20;;
66707;SDS011;53622;0.000;0.000;2023-08-21T05:22:37;9.50;;;5.55;;
66707;SDS011;53622;0.000;0.000;2023-08-21T05:25:10;8.07;;;5.50;;
66707;SDS011;53622;0.000;0.000;2023-08-21T05:27:39;12.45;;;5.40;;
66707;SDS011;53622;0.000;0.000;2023-08-21T05:30:09;7.93;;;5.40;;
66707;SDS011;53622;0.000;0.000;2023-08-21T05:32:41;6.90;;;5.47;;
66707;SDS011;53622;0.000;0.000;2023-08-21T05:35:10;7.55;;;5.05;;
66707;SDS011;53622;0.000;0.000;2023-08-21T05:37:40;8.95;;;5.30;;
66707;SDS011;53622;0.000;0.000;2023-08-21T05:40:12;7.63;;;4.80;;
66707;SDS011;53622;0.000;0.000;2023-08-21T05:42:57;10.80;;;5.50;;
66707;SDS011;53622;0.000;0.000;2023-08-21T05:45:27;6.88;;;5.25;;
66707;SDS011;53622;0.000;0.000;2023-08-21T05:47:57;10.52;;;5.30;;
66707;SDS011;53622;0.000;0.000;2023-08-21T05:50:27;9.00;;;5.00;;
66707;SDS011;53622;0.000;0.000;2023-08-21T05:52:57;8.80;;;5.20;;
66707;SDS011;53622;0.000;0.000;2023-08-21T05:55:30;6.40;;;5.28;;
66707;SDS011;53622;0.000;0.000;2023-08-21T05:58:00;7.45;;;5.05;;
66707;SDS011;53622;0.000;0.000;2023-08-21T06:00:30;10.55;;;5.75;;
66707;SDS011;53622;0.000;0.000;2023-08-21T06:03:01;10.13;;;5.40;;
66707;SDS011;53622;0.000;0.000;2023-08-21T06:06:06;10.23;;;5.82;;
66707;SDS011;53622;0.000;0.000;2023-08-21T06:08:35;12.05;;;5.25;;
66707;SDS011;53622;0.000;0.000;2023-08-21T06:11:06;8.90;;;5.50;;
66707;SDS011;53622;0.000;0.000;2023-08-21T06:13:35;11.55;;;5.75;;
66707;SDS011;53622;0.000;0.000;2023-08-21T06:16:05;12.48;;;5.20;;
66707;SDS011;53622;0.000;0.000;2023-08-21T06:18:37;10.48;;;5.72;;
66707;SDS011;53622;0.000;0.000;2023-08-21T06:21:06;11.90;;;5.72;;
66707;SDS011;53622;0.000;0.000;2023-08-21T06:23:37;11.43;;;6.28;;
66707;SDS011;53622;0.000;0.000;2023-08-21T06:26:08;8.68;;;5.60;;
66707;SDS011;53622;0.000;0.000;2023-08-21T06:28:37;9.65;;;5.80;;
66707;SDS011;53622;0.000;0.000;2023-08-21T06:31:08;15.18;;;5.88;;
66707;SDS011;53622;0.000;0.000;2023-08-21T06:33:37;9.18;;;5.88;;
66707;SDS011;53622;0.000;0.000;2023-08-21T06:36:07;9.38;;;5.68;;
66707;SDS011;53622;0.000;0.000;2023-08-21T06:38:36;14.43;;;5.95;;
66707;SDS011;53622;0.000;0.000;2023-08-21T06:41:07;8.60;;;5.85;;
66707;SDS011;53622;0.000;0.000;2023-08-21T06:43:38;8.70;;;5.25;;
66707;SDS011;53622;0.000;0.000;2023-08-21T06:46:14;10.45;;;5.35;;
66707;SDS011;53622;0.000;0.000;2023-08-21T06:48:43;10.25;;;5.88;;
66707;SDS011;53622;0.000;0.000;2023-08-21T06:51:13;9.38;;;6.15;;
66707;SDS011;53622;0.000;0.000;2023-08-21T06:53:43;11.50;;;5.75;;
66707;SDS011;53622;0.000;0.000;2023-08-21T06:56:15;10.20;;;6.35;;
66707;SDS011;53622;0.000;0.000;2023-08-21T06:58:44;7.72;;;5.50;;
66707;SDS011;53622;0.000;0.000;2023-08-21T07:01:14;13.90;;;6.35;;
66707;SDS011;53622;0.000;0.000;2023-08-21T07:03:43;6.93;;;5.72;;
66707;SDS011;53622;0.000;0.000;2023-08-21T07:06:12;8.45;;;5.55;;
66707;SDS011;53622;0.000;0.000;2023-08-21T07:08:42;8.32;;;5.75;;
66707;SDS011;53622;0.000;0.000;2023-08-21T07:11:11;8.23;;;5.68;;
66707;SDS011;53622;0.000;0.000;2023-08-21T07:13:45;8.70;;;6.03;;
66707;SDS011;53622;0.000;0.000;2023-08-21T07:16:14;9.13;;;5.75;;
66707;SDS011;53622;0.000;0.000;2023-08-21T07:18:43;9.98;;;5.45;;
66707;SDS011;53622;0.000;0.000;2023-08-21T07:21:13;10.73;;;5.68;;
66707;SDS011;53622;0.000;0.000;2023-08-21T07:23:58;11.02;;;5.70;;
66707;SDS011;53622;0.000;0.000;2023-08-21T07:26:28;10.23;;;6.05;;
66707;SDS011;53622;0.000;0.000;2023-08-21T07:28:58;12.18;;;6.15;;
66707;SDS011;53622;0.000;0.000;2023-08-21T07:31:28;12.55;;;6.47;;
66707;SDS011;53622;0.000;0.000;2023-08-21T07:33:57;10.40;;;6.25;;
66707;SDS011;53622;0.000;0.000;2023-08-21T07:36:27;10.48;;;6.05;;
66707;SDS011;53622;0.000;0.000;2023-08-21T07:38:56;9.20;;;5.55;;
66707;SDS011;53622;0.000;0.000;2023-08-21T07:41:25;9.20;;;5.57;;
66707;SDS011;53622;0.000;0.000;2023-08-21T07:43:54;15.10;;;5.60;;
66707;SDS011;53622;0.000;0.000;2023-08-21T07:46:25;8.18;;;5.55;;
66707;SDS011;53622;0.000;0.000;2023-08-21T07:48:55;7.80;;;5.75;;
66707;SDS011;53622;0.000;0.000;2023-08-21T07:51:24;9.82;;;6.18;;
66707;SDS011;53622;0.000;0.000;2023-08-21T07:53:54;13.65;;;6.10;;
66707;SDS011;53622;0.000;0.000;2023-08-21T07:56:26;12.65;;;5.95;;
66707;SDS011;53622;0.000;0.000;2023-08-21T07:58:56;10.23;;;5.80;;
66707;SDS011;53622;0.000;0.000;2023-08-21T08:01:26;9.35;;;5.95;;
66707;SDS011;53622;0.000;0.000;2023-08-21T08:03:56;13.05;;;6.55;;
66707;SDS011;53622;0.000;0.000;2023-08-21T08:06:26;10.88;;;5.80;;
66707;SDS011;53622;0.000;0.000;2023-08-21T08:09:05;10.48;;;5.68;;
66707;SDS011;53622;0.000;0.000;2023-08-21T08:11:34;8.57;;;6.10;;
66707;SDS011;53622;0.000;0.000;2023-08-21T08:14:04;9.73;;;6.10;;
66707;SDS011;53622;0.000;0.000;2023-08-21T08:16:35;10.40;;;5.47;;
66707;SDS011;53622;0.000;0.000;2023-08-21T08:19:05;14.18;;;5.78;;
66707;SDS011;53622;0.000;0.000;2023-08-21T08:21:34;9.68;;;5.57;;
66707;SDS011;53622;0.000;0.000;2023-08-21T08:24:04;8.77;;;6.05;;
66707;SDS011;53622;0.000;0.000;2023-08-21T08:26:33;7.15;;;5.13;;
66707;SDS011;53622;0.000;0.000;2023-08-21T08:29:03;8.93;;;5.35;;
66707;SDS011;53622;0.000;0.000;2023-08-21T08:31:32;7.25;;;5.30;;
66707;SDS011;53622;0.000;0.000;2023-08-21T08:34:03;9.40;;;5.82;;
66707;SDS011;53622;0.000;0.000;2023-08-21T08:36:34;7.47;;;5.75;;
66707;SDS011;53622;0.000;0.000;2023-08-21T08:39:04;7.07;;;5.40;;
66707;SDS011;53622;0.000;0.000;2023-08-21T08:41:37;10.23;;;5.75;;
66707;SDS011;53622;0.000;0.000;2023-08-21T08:44:12;6.00;;;5.10;;
66707;SDS011;53622;0.000;0.000;2023-08-21T08:46:44;7.90;;;5.07;;
66707;SDS011;53622;0.000;0.000;2023-08-21T08:49:14;6.82;;;5.18;;
66707;SDS011;53622;0.000;0.000;2023-08-21T08:51:44;6.78;;;5.13;;
66707;SDS011;53622;0.000;0.000;2023-08-21T08:54:16;5.93;;;4.95;;
66707;SDS011;53622;0.000;0.000;2023-08-21T08:56:46;7.18;;;4.85;;
66707;SDS011;53622;0.000;0.000;2023-08-21T08:59:16;8.80;;;5.15;;
66707;SDS011;53622;0.000;0.000;2023-08-21T09:01:46;7.05;;;5.22;;
66707;SDS011;53622;0.000;0.000;2023-08-21T09:04:16;6.10;;;5.50;;
66707;SDS011;53622;0.000;0.000;2023-08-21T09:06:45;9.52;;;5.57;;
66707;SDS011;53622;0.000;0.000;2023-08-21T09:09:15;6.65;;;4.97;;
66707;SDS011;53622;0.000;0.000;2023-08-21T09:11:45;6.88;;;5.50;;
66707;SDS011;53622;0.000;0.000;2023-08-21T09:14:15;6.07;;;5.47;;
66707;SDS011;53622;0.000;0.000;2023-08-21T09:17:00;7.25;;;5.60;;
66707;SDS011;53622;0.000;0.000;2023-08-21T09:19:31;5.53;;;4.85;;
66707;SDS011;53622;0.000;0.000;2023-08-21T09:22:07;8.27;;;5.22;;
66707;SDS011;53622;0.000;0.000;2023-08-21T09:24:37;7.32;;;5.30;;
66707;SDS011;53622;0.000;0.000;2023-08-21T09:27:13;7.03;;;5.35;;
66707;SDS011;53622;0.000;0.000;2023-08-21T09:29:44;5.50;;;4.53;;
66707;SDS011;53622;0.000;0.000;2023-08-21T09:32:17;10.38;;;5.43;;
66707;SDS011;53622;0.000;0.000;2023-08-21T09:34:46;7.10;;;4.95;;
66707;SDS011;53622;0.000;0.000;2023-08-21T09:37:16;6.60;;;5.60;;
66707;SDS011;53622;0.000;0.000;2023-08-21T09:39:46;6.13;;;5.10;;
66707;SDS011;53622;0.000;0.000;2023-08-21T09:42:16;7.10;;;5.47;;
66707;SDS011;53622;0.000;0.000;2023-08-21T09:44:47;9.45;;;5.88;;
66707;SDS011;53622;0.000;0.000;2023-08-21T09:47:21;7.97;;;5.65;;
66707;SDS011;53622;0.000;0.000;2023-08-21T09:49:54;10.93;;;5.97;;
66707;SDS011;53622;0.000;0.000;2023-08-21T09:52:23;8.90;;;5.85;;
66707;SDS011;53622;0.000;0.000;2023-08-21T09:54:54;6.95;;;5.10;;
66707;SDS011;53622;0.000;0.000;2023-08-21T09:57:25;7.00;;;5.15;;
66707;SDS011;53622;0.000;0.000;2023-08-21T09:59:56;6.72;;;5.43;;
66707;SDS011;53622;0.000;0.000;2023-08-21T10:02:27;8.48;;;5.70;;
66707;SDS011;53622;0.000;0.000;2023-08-21T10:04:58;8.82;;;5.60;;
66707;SDS011;53622;0.000;0.000;2023-08-21T10:07:28;7.75;;;5.55;;
66707;SDS011;53622;0.000;0.000;2023-08-21T10:09:58;7.00;;;5.38;;
66707;SDS011;53622;0.000;0.000;2023-08-21T10:12:28;7.60;;;5.30;;
66707;SDS011;53622;0.000;0.000;2023-08-21T10:14:57;10.52;;;6.15;;
66707;SDS011;53622;0.000;0.000;2023-08-21T10:17:28;8.88;;;5.65;;
66707;SDS011;53622;0.000;0.000;2023-08-21T10:20:02;5.75;;;4.97;;
66707;SDS011;53622;0.000;0.000;2023-08-21T10:22:37;6.95;;;5.30;;
66707;SDS011;53622;0.000;0.000;2023-08-21T10:25:13;6.70;;;5.30;;
66707;SDS011;53622;0.000;0.000;2023-08-21T10:27:43;7.35;;;5.30;;
66707;SDS011;53622;0.000;0.000;2023-08-21T10:30:15;6.07;;;5.28;;
66707;SDS011;53622;0.000;0.000;2023-08-21T10:32:50;7.68;;;5.10;;
66707;SDS011;53622;0.000;0.000;2023-08-21T10:35:21;6.65;;;4.88;;
66707;SDS011;53622;0.000;0.000;2023-08-21T10:38:05;6.32;;;5.22;;
66707;SDS011;53622;0.000;0.000;2023-08-21T10:40:39;5.38;;;4.57;;
66707;SDS011;53622;0.000;0.000;2023-08-21T10:46:06;5.30;;;4.80;;
66707;SDS011;53622;0.000;0.000;2023-08-21T10:48:37;6.15;;;4.80;;
66707;SDS011;53622;0.000;0.000;2023-08-21T10:51:08;6.18;;;4.80;;
66707;SDS011;53622;0.000;0.000;2023-08-21T10:53:40;7.22;;;5.15;;
66707;SDS011;53622;0.000;0.000;2023-08-21T10:56:10;6.05;;;5.15;;
66707;SDS011;53622;0.000;0.000;2023-08-21T10:58:40;7.00;;;4.90;;
66707;SDS011;53622;0.000;0.000;2023-08-21T11:01:11;6.57;;;5.07;;
66707;SDS011;53622;0.000;0.000;2023-08-21T11:03:46;8.65;;;4.80;;
66707;SDS011;53622;0.000;0.000;2023-08-21T11:06:18;5.82;;;4.50;;
66707;SDS011;53622;0.000;0.000;2023-08-21T11:08:48;8.48;;;4.90;;
66707;SDS011;53622;0.000;0.000;2023-08-21T11:11:18;4.80;;;4.30;;
66707;SDS011;53622;0.000;0.000;2023-08-21T11:13:52;5.40;;;5.00;;
66707;SDS011;53622;0.000;0.000;2023-08-21T11:16:22;6.55;;;4.72;;
66707;SDS011;53622;0.000;0.000;2023-08-21T11:18:55;4.82;;;4.38;;
66707;SDS011;53622;0.000;0.000;2023-08-21T11:21:24;7.93;;;4.93;;
66707;SDS011;53622;0.000;0.000;2023-08-21T11:23:54;6.07;;;4.85;;
66707;SDS011;53622;0.000;0.000;2023-08-21T11:26:24;6.05;;;5.05;;
66707;SDS011;53622;0.000;0.000;2023-08-21T11:28:54;5.47;;;4.63;;
66707;SDS011;53622;0.000;0.000;2023-08-21T11:31:25;7.20;;;4.50;;
66707;SDS011;53622;0.000;0.000;2023-08-21T11:33:57;6.38;;;4.75;;
66707;SDS011;53622;0.000;0.000;2023-08-21T11:36:44;7.45;;;4.85;;
66707;SDS011;53622;0.000;0.000;2023-08-21T11:39:14;5.55;;;4.60;;
66707;SDS011;53622;0.000;0.000;2023-08-21T11:41:52;6.28;;;4.75;;
66707;SDS011;53622;0.000;0.000;2023-08-21T11:44:22;5.35;;;4.85;;
66707;SDS011;53622;0.000;0.000;2023-08-21T11:46:51;6.10;;;5.10;;
66707;SDS011;53622;0.000;0.000;2023-08-21T11:49:22;7.20;;;5.22;;
66707;SDS011;53622;0.000;0.000;2023-08-21T11:51:52;5.32;;;4.88;;
66707;SDS011;53622;0.000;0.000;2023-08-21T11:54:21;7.72;;;5.32;;
66707;SDS011;53622;0.000;0.000;2023-08-21T11:56:50;5.55;;;4.75;;
66707;SDS011;53622;0.000;0.000;2023-08-21T11:59:21;5.63;;;5.10;;
66707;SDS011;53622;0.000;0.000;2023-08-21T12:01:51;8.93;;;5.55;;
66707;SDS011;53622;0.000;0.000;2023-08-21T12:04:20;8.15;;;4.90;;
66707;SDS011;53622;0.000;0.000;2023-08-21T12:06:51;5.88;;;4.97;;
66707;SDS011;53622;0.000;0.000;2023-08-21T12:09:21;6.90;;;5.07;;
66707;SDS011;53622;0.000;0.000;2023-08-21T12:11:50;7.75;;;5.32;;
66707;SDS011;53622;0.000;0.000;2023-08-21T12:14:19;7.75;;;5.30;;
66707;SDS011;53622;0.000;0.000;2023-08-21T12:16:50;6.68;;;4.90;;
66707;SDS011;53622;0.000;0.000;2023-08-21T12:19:19;6.50;;;5.15;;
66707;SDS011;53622;0.000;0.000;2023-08-21T12:21:51;10.15;;;5.03;;
66707;SDS011;53622;0.000;0.000;2023-08-21T12:24:20;6.63;;;4.53;;
66707;SDS011;53622;0.000;0.000;2023-08-21T12:26:49;6.75;;;5.03;;
66707;SDS011;53622;0.000;0.000;2023-08-21T12:29:20;6.88;;;4.95;;
66707;SDS011;53622;0.000;0.000;2023-08-21T12:31:49;7.70;;;4.97;;
66707;SDS011;53622;0.000;0.000;2023-08-21T12:34:19;8.40;;;5.03;;
66707;SDS011;53622;0.000;0.000;2023-08-21T12:36:51;7.70;;;4.88;;
66707;SDS011;53622;0.000;0.000;2023-08-21T12:39:20;9.10;;;5.00;;
66707;SDS011;53622;0.000;0.000;2023-08-21T12:41:50;7.88;;;5.00;;
66707;SDS011;53622;0.000;0.000;2023-08-21T12:44:19;7.18;;;4.93;;
66707;SDS011;53622;0.000;0.000;2023-08-21T12:46:49;7.00;;;4.78;;
66707;SDS011;53622;0.000;0.000;2023-08-21T12:49:19;7.35;;;4.65;;
66707;SDS011;53622;0.000;0.000;2023-08-21T12:51:51;8.02;;;5.03;;
66707;SDS011;53622;0.000;0.000;2023-08-21T12:54:21;8.95;;;4.85;;
66707;SDS011;53622;0.000;0.000;2023-08-21T12:56:50;6.70;;;5.05;;
66707;SDS011;53622;0.000;0.000;2023-08-21T12:59:21;5.20;;;4.72;;
66707;SDS011;53622;0.000;0.000;2023-08-21T13:01:51;5.78;;;4.53;;
66707;SDS011;53622;0.000;0.000;2023-08-21T13:04:20;5.25;;;4.55;;
66707;SDS011;53622;0.000;0.000;2023-08-21T13:06:51;5.47;;;4.57;;
66707;SDS011;53622;0.000;0.000;2023-08-21T13:09:20;4.70;;;4.15;;
66707;SDS011;53622;0.000;0.000;2023-08-21T13:11:51;4.93;;;4.53;;
66707;SDS011;53622;0.000;0.000;2023-08-21T13:14:22;5.53;;;4.95;;
66707;SDS011;53622;0.000;0.000;2023-08-21T13:16:51;6.20;;;4.60;;
66707;SDS011;53622;0.000;0.000;2023-08-21T13:19:21;5.63;;;4.80;;
66707;SDS011;53622;0.000;0.000;2023-08-21T13:21:51;5.90;;;4.53;;
66707;SDS011;53622;0.000;0.000;2023-08-21T13:24:21;7.57;;;4.90;;
66707;SDS011;53622;0.000;0.000;2023-08-21T13:26:51;5.85;;;4.82;;
66707;SDS011;53622;0.000;0.000;2023-08-21T13:29:20;5.38;;;4.70;;
66707;SDS011;53622;0.000;0.000;2023-08-21T13:31:50;4.68;;;4.28;;
66707;SDS011;53622;0.000;0.000;2023-08-21T13:34:19;4.82;;;4.30;;
66707;SDS011;53622;0.000;0.000;2023-08-21T13:36:48;5.55;;;4.43;;
66707;SDS011;53622;0.000;0.000;2023-08-21T13:39:19;4.53;;;4.07;;
66707;SDS011;53622;0.000;0.000;2023-08-21T13:41:49;4.50;;;4.05;;
66707;SDS011;53622;0.000;0.000;2023-08-21T13:44:18;4.80;;;4.30;;
66707;SDS011;53622;0.000;0.000;2023-08-21T13:46:48;5.10;;;4.55;;
66707;SDS011;53622;0.000;0.000;2023-08-21T13:49:17;5.55;;;4.43;;
66707;SDS011;53622;0.000;0.000;2023-08-21T13:51:46;6.32;;;4.28;;
66707;SDS011;53622;0.000;0.000;2023-08-21T13:54:16;7.55;;;4.18;;
66707;SDS011;53622;0.000;0.000;2023-08-21T13:56:47;4.95;;;4.15;;
66707;SDS011;53622;0.000;0.000;2023-08-21T13:59:17;5.88;;;4.43;;
66707;SDS011;53622;0.000;0.000;2023-08-21T14:01:48;5.20;;;4.72;;
66707;SDS011;53622;0.000;0.000;2023-08-21T14:04:17;5.50;;;4.10;;
66707;SDS011;53622;0.000;0.000;2023-08-21T14:06:46;5.05;;;4.20;;
66707;SDS011;53622;0.000;0.000;2023-08-21T14:09:16;5.60;;;4.32;;
66707;SDS011;53622;0.000;0.000;2023-08-21T14:11:47;4.30;;;3.92;;
66707;SDS011;53622;0.000;0.000;2023-08-21T14:14:16;5.90;;;4.50;;
66707;SDS011;53622;0.000;0.000;2023-08-21T14:16:46;4.90;;;4.03;;
66707;SDS011;53622;0.000;0.000;2023-08-21T14:19:15;4.32;;;3.92;;
66707;SDS011;53622;0.000;0.000;2023-08-21T14:21:44;5.45;;;4.40;;
66707;SDS011;53622;0.000;0.000;2023-08-21T14:24:14;7.50;;;4.53;;
66707;SDS011;53622;0.000;0.000;2023-08-21T14:26:43;4.30;;;3.90;;
66707;SDS011;53622;0.000;0.000;2023-08-21T14:29:14;5.00;;;4.60;;
66707;SDS011;53622;0.000;0.000;2023-08-21T14:31:43;4.95;;;4.07;;
66707;SDS011;53622;0.000;0.000;2023-08-21T14:34:14;4.75;;;4.30;;
66707;SDS011;53622;0.000;0.000;2023-08-21T14:36:44;5.13;;;4.40;;
66707;SDS011;53622;0.000;0.000;2023-08-21T14:39:13;4.20;;;3.90;;
66707;SDS011;53622;0.000;0.000;2023-08-21T14:41:43;5.20;;;4.35;;
66707;SDS011;53622;0.000;0.000;2023-08-21T14:44:14;5.43;;;4.20;;
66707;SDS011;53622;0.000;0.000;2023-08-21T14:46:43;4.97;;;4.25;;
66707;SDS011;53622;0.000;0.000;2023-08-21T14:49:12;7.65;;;4.30;;
66707;SDS011;53622;0.000;0.000;2023-08-21T14:51:42;15.40;;;5.00;;
66707;SDS011;53622;0.000;0.000;2023-08-21T14:54:11;5.90;;;4.68;;
66707;SDS011;53622;0.000;0.000;2023-08-21T14:56:41;6.80;;;4.00;;
66707;SDS011;53622;0.000;0.000;2023-08-21T14:59:10;8.82;;;4.43;;
66707;SDS011;53622;0.000;0.000;2023-08-21T15:01:43;7.40;;;4.00;;
66707;SDS011;53622;0.000;0.000;2023-08-21T15:04:12;5.75;;;4.40;;
66707;SDS011;53622;0.000;0.000;2023-08-21T15:06:42;5.70;;;4.20;;
66707;SDS011;53622;0.000;0.000;2023-08-21T15:09:11;7.55;;;4.47;;
66707;SDS011;53622;0.000;0.000;2023-08-21T15:11:41;7.68;;;4.25;;
66707;SDS011;53622;0.000;0.000;2023-08-21T15:14:10;6.95;;;3.90;;
66707;SDS011;53622;0.000;0.000;2023-08-21T15:16:40;5.47;;;3.97;;
66707;SDS011;53622;0.000;0.000;2023-08-21T15:19:11;4.72;;;3.90;;
66707;SDS011;53622;0.000;0.000;2023-08-21T15:21:41;4.95;;;3.85;;
66707;SDS011;53622;0.000;0.000;2023-08-21T15:24:11;4.50;;;4.07;;
66707;SDS011;53622;0.000;0.000;2023-08-21T15:26:40;4.85;;;4.35;;